createdAt,value
2019-03-30T00:01:35.490Z,10.13
2019-03-30T00:04:04.146Z,8.80
2019-03-30T00:06:32.718Z,9.50
2019-03-30T00:09:01.285Z,9.37
2019-03-30T00:11:29.830Z,8.97
2019-03-30T00:13:58.426Z,8.50
2019-03-30T00:16:27.294Z,10.13
2019-03-30T00:18:55.877Z,9.77
2019-03-30T00:21:24.468Z,10.43
2019-03-30T00:23:53.016Z,9.43
2019-03-30T00:26:21.609Z,9.53
2019-03-30T00:28:50.154Z,9.30
2019-03-30T00:31:18.707Z,9.33
2019-03-30T00:33:47.299Z,9.53
2019-03-30T00:36:15.875Z,10.47
2019-03-30T00:38:44.450Z,9.20
2019-03-30T00:41:13.174Z,8.77
2019-03-30T00:43:42.010Z,8.43
2019-03-30T00:46:10.605Z,9.60
2019-03-30T00:48:39.248Z,11.37
2019-03-30T00:51:07.798Z,10.17
2019-03-30T00:53:36.390Z,10.70
2019-03-30T00:56:05.113Z,11.07
2019-03-30T00:58:33.705Z,11.07
2019-03-30T01:01:02.287Z,11.40
2019-03-30T01:03:30.827Z,8.90
2019-03-30T01:05:59.422Z,10.27
2019-03-30T01:08:27.991Z,13.37
2019-03-30T01:10:56.647Z,13.75
2019-03-30T01:13:25.271Z,12.10
2019-03-30T01:15:53.826Z,11.87
2019-03-30T01:18:22.490Z,11.70
2019-03-30T01:20:51.061Z,11.53
2019-03-30T01:23:19.954Z,12.37
2019-03-30T01:25:48.863Z,14.27
2019-03-30T01:28:17.436Z,12.33
2019-03-30T01:30:46.134Z,16.00
2019-03-30T01:33:14.729Z,16.40
2019-03-30T01:35:43.278Z,14.53
2019-03-30T01:38:11.869Z,13.53
2019-03-30T01:40:40.446Z,13.07
2019-03-30T01:43:09.091Z,13.80
2019-03-30T01:45:37.918Z,14.10
2019-03-30T01:48:06.526Z,17.20
2019-03-30T01:50:35.255Z,15.47
2019-03-30T01:53:03.905Z,14.13
2019-03-30T01:55:32.542Z,13.77
2019-03-30T01:58:01.126Z,15.13
2019-03-30T02:00:29.780Z,15.20
2019-03-30T02:02:58.331Z,12.63
2019-03-30T02:05:26.933Z,16.23
2019-03-30T02:07:55.503Z,16.83
2019-03-30T02:10:41.300Z,15.53
2019-03-30T02:13:10.276Z,17.67
2019-03-30T02:15:39.446Z,18.03
2019-03-30T02:18:08.456Z,16.63
2019-03-30T02:20:47.995Z,16.93
2019-03-30T02:23:16.787Z,19.73
2019-03-30T02:25:45.770Z,18.07
2019-03-30T02:28:14.475Z,16.17
2019-03-30T02:30:43.028Z,18.40
2019-03-30T02:33:11.804Z,17.23
2019-03-30T02:35:40.946Z,16.63
2019-03-30T02:38:09.531Z,15.87
2019-03-30T02:40:38.127Z,15.60
2019-03-30T02:43:06.671Z,15.17
2019-03-30T02:45:35.312Z,14.30
2019-03-30T02:48:03.889Z,15.17
2019-03-30T02:50:48.101Z,14.53
2019-03-30T02:53:03.140Z,17.60
2019-03-30T02:55:31.764Z,13.93
2019-03-30T02:58:00.405Z,15.27
2019-03-30T03:00:29.033Z,15.73
2019-03-30T03:02:57.637Z,16.47
2019-03-30T03:05:26.683Z,17.60
2019-03-30T03:07:55.350Z,14.47
2019-03-30T03:10:24.382Z,15.20
2019-03-30T03:12:52.944Z,12.77
2019-03-30T03:15:21.602Z,15.30
2019-03-30T03:17:50.205Z,16.07
2019-03-30T03:20:18.985Z,17.67
2019-03-30T03:22:47.593Z,15.80
2019-03-30T03:25:16.227Z,14.50
2019-03-30T03:27:44.926Z,16.70
2019-03-30T03:30:14.248Z,13.07
2019-03-30T03:32:43.141Z,13.50
2019-03-30T03:35:12.162Z,16.37
2019-03-30T03:37:45.392Z,15.17
2019-03-30T03:40:11.460Z,13.67
2019-03-30T03:42:40.216Z,15.83
2019-03-30T03:45:09.308Z,14.40
2019-03-30T03:47:38.013Z,14.57
2019-03-30T03:50:07.443Z,18.60
2019-03-30T03:52:37.147Z,15.27
2019-03-30T03:55:06.268Z,15.13
2019-03-30T03:57:38.036Z,18.07
2019-03-30T04:00:07.969Z,14.83
2019-03-30T04:02:37.540Z,15.60
2019-03-30T04:05:08.036Z,15.03
2019-03-30T04:07:39.682Z,15.53
2019-03-30T04:10:08.815Z,13.77
2019-03-30T04:12:37.914Z,12.93
2019-03-30T04:15:08.267Z,13.53
2019-03-30T04:17:37.601Z,12.57
2019-03-30T04:20:06.921Z,14.30
2019-03-30T04:22:35.527Z,16.00
2019-03-30T04:25:05.926Z,13.60
2019-03-30T04:27:34.528Z,12.40
2019-03-30T04:30:03.683Z,13.43
2019-03-30T04:32:32.248Z,14.17
2019-03-30T04:35:00.839Z,15.33
2019-03-30T04:37:29.412Z,15.97
2019-03-30T04:39:58.000Z,14.20
2019-03-30T04:42:26.623Z,16.60
2019-03-30T04:44:55.179Z,14.67
2019-03-30T04:47:23.758Z,16.07
2019-03-30T04:49:52.361Z,18.27
2019-03-30T04:52:20.955Z,15.97
2019-03-30T04:54:49.539Z,16.37
2019-03-30T04:57:18.168Z,16.73
2019-03-30T04:59:46.747Z,17.77
2019-03-30T05:02:15.330Z,18.57
2019-03-30T05:04:43.912Z,17.67
2019-03-30T05:07:12.569Z,18.70
2019-03-30T05:09:41.166Z,18.90
2019-03-30T05:12:09.721Z,19.67
2019-03-30T05:14:38.323Z,19.70
2019-03-30T05:17:07.047Z,19.30
2019-03-30T05:19:35.712Z,20.30
2019-03-30T05:22:12.038Z,20.67
2019-03-30T05:24:34.585Z,24.77
2019-03-30T05:27:03.192Z,28.70
2019-03-30T05:29:31.798Z,21.63
2019-03-30T05:32:00.352Z,22.47
2019-03-30T05:34:29.303Z,24.43
2019-03-30T05:36:57.863Z,25.17
2019-03-30T05:39:26.496Z,25.17
2019-03-30T05:41:55.108Z,22.90
2019-03-30T05:44:23.660Z,24.00
2019-03-30T05:46:52.332Z,24.30
2019-03-30T05:49:20.913Z,25.23
2019-03-30T05:51:49.546Z,24.47
2019-03-30T05:54:18.135Z,27.23
2019-03-30T05:56:46.782Z,24.33
2019-03-30T05:59:15.390Z,27.30
2019-03-30T06:01:44.343Z,27.13
2019-03-30T06:04:13.211Z,29.03
2019-03-30T06:06:41.805Z,26.03
2019-03-30T06:09:10.467Z,27.30
2019-03-30T06:11:39.007Z,22.50
2019-03-30T06:14:07.615Z,23.07
2019-03-30T06:16:36.168Z,27.27
2019-03-30T06:19:04.753Z,22.90
2019-03-30T06:21:33.403Z,24.57
2019-03-30T06:24:01.982Z,23.03
2019-03-30T06:26:30.578Z,22.83
2019-03-30T06:28:59.254Z,26.03
2019-03-30T06:31:27.816Z,22.67
2019-03-30T06:33:56.423Z,26.80
2019-03-30T06:36:24.986Z,26.40
2019-03-30T06:38:53.556Z,25.00
2019-03-30T06:41:22.154Z,26.97
2019-03-30T06:43:50.733Z,26.17
2019-03-30T06:46:19.323Z,26.80
2019-03-30T06:48:48.227Z,27.13
2019-03-30T06:51:16.787Z,31.43
2019-03-30T06:53:45.435Z,27.70
2019-03-30T06:56:13.963Z,34.33
2019-03-30T06:58:42.545Z,32.37
2019-03-30T07:01:11.787Z,32.30
2019-03-30T07:03:40.780Z,37.23
2019-03-30T07:06:11.423Z,30.20
2019-03-30T07:08:42.583Z,36.77
2019-03-30T07:11:21.128Z,34.40
2019-03-30T07:13:45.951Z,38.87
2019-03-30T07:16:14.596Z,35.60
2019-03-30T07:18:44.600Z,35.53
2019-03-30T07:21:13.270Z,38.60
2019-03-30T07:23:41.838Z,38.00
2019-03-30T07:26:10.445Z,45.60
2019-03-30T07:28:39.095Z,43.07
2019-03-30T07:31:07.667Z,42.83
2019-03-30T07:33:36.251Z,42.00
2019-03-30T07:36:04.972Z,38.97
2019-03-30T07:38:33.661Z,39.83
2019-03-30T07:41:02.277Z,38.13
2019-03-30T07:43:30.832Z,36.63
2019-03-30T07:45:59.418Z,51.35
2019-03-30T07:48:28.026Z,38.17
2019-03-30T07:50:56.676Z,42.10
2019-03-30T07:53:26.938Z,39.73
2019-03-30T07:56:07.748Z,39.37
2019-03-30T07:58:26.048Z,34.60
2019-03-30T08:00:54.663Z,34.53
2019-03-30T08:03:23.243Z,37.80
2019-03-30T08:05:54.420Z,33.43
2019-03-30T08:08:22.039Z,34.07
2019-03-30T08:10:50.654Z,35.83
2019-03-30T08:13:19.784Z,30.17
2019-03-30T08:15:48.369Z,26.50
2019-03-30T08:18:16.972Z,24.90
2019-03-30T08:20:45.632Z,25.50
2019-03-30T08:23:14.147Z,25.40
2019-03-30T08:25:42.772Z,24.63
2019-03-30T08:28:11.352Z,20.40
2019-03-30T08:30:40.011Z,21.77
2019-03-30T08:33:08.661Z,19.40
2019-03-30T08:35:37.252Z,18.30
2019-03-30T08:38:05.867Z,19.70
2019-03-30T08:40:34.655Z,18.93
2019-03-30T08:43:03.271Z,18.60
2019-03-30T08:45:31.836Z,19.90
2019-03-30T08:48:00.428Z,16.53
2019-03-30T08:50:29.094Z,16.93
2019-03-30T08:52:57.747Z,15.80
2019-03-30T08:55:26.340Z,17.67
2019-03-30T08:57:54.983Z,15.77
2019-03-30T09:00:40.930Z,16.33
2019-03-30T09:03:10.406Z,13.83
2019-03-30T09:05:39.140Z,13.33
2019-03-30T09:08:07.781Z,13.27
2019-03-30T09:10:36.468Z,12.57
2019-03-30T09:13:05.042Z,10.40
2019-03-30T09:15:33.651Z,10.87
2019-03-30T09:18:02.227Z,10.73
2019-03-30T09:20:31.087Z,9.77
2019-03-30T09:22:59.671Z,11.53
2019-03-30T09:25:28.265Z,10.37
2019-03-30T09:27:56.868Z,8.93
2019-03-30T09:30:25.844Z,10.23
2019-03-30T09:32:54.421Z,10.50
2019-03-30T09:35:23.319Z,10.17
2019-03-30T09:37:51.926Z,10.03
2019-03-30T09:40:20.482Z,10.13
2019-03-30T09:42:49.130Z,11.97
2019-03-30T09:45:17.695Z,12.57
2019-03-30T09:47:46.289Z,9.73
2019-03-30T09:50:15.264Z,10.00
2019-03-30T09:52:43.830Z,9.50
2019-03-30T09:55:12.771Z,10.03
2019-03-30T09:57:41.346Z,9.60
2019-03-30T10:00:10.824Z,9.70
2019-03-30T10:02:39.412Z,10.03
2019-03-30T10:05:08.233Z,9.13
2019-03-30T10:07:36.793Z,9.30
2019-03-30T10:10:07.396Z,8.67
2019-03-30T10:12:35.889Z,9.90
2019-03-30T10:15:06.683Z,10.60
2019-03-30T10:17:35.307Z,9.07
2019-03-30T10:20:06.636Z,8.43
2019-03-30T10:22:35.267Z,11.20
2019-03-30T10:25:05.060Z,9.67
2019-03-30T10:27:33.985Z,10.00
2019-03-30T10:30:02.759Z,12.40
2019-03-30T10:32:31.661Z,9.53
2019-03-30T10:35:00.370Z,9.03
2019-03-30T10:37:29.043Z,14.87
2019-03-30T10:39:57.920Z,10.63
2019-03-30T10:42:26.795Z,9.53
2019-03-30T10:44:55.367Z,10.33
2019-03-30T10:47:23.957Z,9.27
2019-03-30T10:49:52.563Z,9.50
2019-03-30T10:52:21.146Z,9.00
2019-03-30T10:54:52.937Z,8.37
2019-03-30T10:57:20.026Z,10.27
2019-03-30T10:59:48.579Z,9.83
2019-03-30T11:02:17.188Z,8.33
2019-03-30T11:04:46.109Z,9.27
2019-03-30T11:07:14.691Z,10.07
2019-03-30T11:09:43.278Z,10.43
2019-03-30T11:12:11.852Z,9.10
2019-03-30T11:14:40.430Z,8.30
2019-03-30T11:17:09.109Z,9.97
2019-03-30T11:19:37.745Z,8.47
2019-03-30T11:22:06.344Z,9.17
2019-03-30T11:24:34.892Z,9.47
2019-03-30T11:27:03.489Z,8.83
2019-03-30T11:29:32.364Z,8.47
2019-03-30T11:32:00.971Z,7.10
2019-03-30T11:34:29.572Z,7.80
2019-03-30T11:36:58.191Z,9.00
2019-03-30T11:39:26.721Z,8.03
2019-03-30T11:41:55.321Z,7.90
2019-03-30T11:44:23.898Z,7.63
2019-03-30T11:46:52.551Z,7.07
2019-03-30T11:49:21.134Z,7.93
2019-03-30T11:51:49.687Z,8.67
2019-03-30T11:54:18.294Z,8.40
2019-03-30T11:56:46.916Z,8.07
2019-03-30T11:59:15.565Z,7.33
2019-03-30T12:01:44.651Z,7.60
2019-03-30T12:04:13.287Z,7.87
2019-03-30T12:06:41.856Z,6.93
2019-03-30T12:09:10.460Z,7.20
2019-03-30T12:11:39.144Z,6.67
2019-03-30T12:14:07.735Z,7.80
2019-03-30T12:16:36.326Z,8.93
2019-03-30T12:19:06.060Z,7.35
2019-03-30T12:21:34.769Z,6.13
2019-03-30T12:24:03.354Z,7.57
2019-03-30T12:26:32.314Z,6.60
2019-03-30T12:29:00.947Z,7.20
2019-03-30T12:31:29.784Z,7.20
2019-03-30T12:33:58.793Z,6.13
2019-03-30T12:36:27.369Z,7.03
2019-03-30T12:38:55.956Z,7.20
2019-03-30T12:41:24.531Z,7.97
2019-03-30T12:43:53.185Z,6.20
2019-03-30T12:46:21.895Z,6.03
2019-03-30T12:48:50.536Z,6.47
2019-03-30T12:51:19.105Z,5.93
2019-03-30T12:53:50.525Z,6.10
2019-03-30T12:56:17.937Z,6.67
2019-03-30T12:58:46.487Z,6.23
2019-03-30T13:01:15.717Z,7.53
2019-03-30T13:03:44.281Z,6.00
2019-03-30T13:06:12.863Z,6.70
2019-03-30T13:08:41.446Z,6.23
2019-03-30T13:11:10.011Z,5.63
2019-03-30T13:13:38.614Z,5.97
2019-03-30T13:16:07.195Z,5.97
2019-03-30T13:18:35.777Z,8.13
2019-03-30T13:21:04.527Z,5.80
2019-03-30T13:23:33.104Z,5.90
2019-03-30T13:26:03.804Z,5.70
2019-03-30T13:28:31.935Z,6.33
2019-03-30T13:31:00.492Z,5.80
2019-03-30T13:33:29.154Z,6.17
2019-03-30T13:35:57.759Z,7.77
2019-03-30T13:38:26.321Z,7.47
2019-03-30T13:40:54.970Z,5.83
2019-03-30T13:43:23.968Z,6.57
2019-03-30T13:45:52.541Z,5.87
2019-03-30T13:48:21.167Z,5.87
2019-03-30T13:50:49.796Z,6.40
2019-03-30T13:53:18.395Z,6.83
2019-03-30T13:55:46.981Z,6.30
2019-03-30T13:58:15.564Z,7.70
2019-03-30T14:00:44.251Z,7.13
2019-03-30T14:03:12.829Z,6.77
2019-03-30T14:05:41.675Z,8.43
2019-03-30T14:08:10.281Z,7.17
2019-03-30T14:10:39.290Z,7.70
2019-03-30T14:13:08.288Z,8.50
2019-03-30T14:15:37.251Z,8.83
2019-03-30T14:18:05.881Z,7.60
2019-03-30T14:20:34.583Z,7.00
2019-03-30T14:23:03.136Z,11.60
2019-03-30T14:25:31.732Z,7.58
2019-03-30T14:28:00.319Z,7.67
2019-03-30T14:30:29.010Z,6.60
2019-03-30T14:32:57.591Z,6.93
2019-03-30T14:35:26.523Z,5.80
2019-03-30T14:37:55.111Z,6.72
2019-03-30T14:40:23.832Z,7.60
2019-03-30T14:42:52.397Z,8.57
2019-03-30T14:45:20.975Z,7.17
2019-03-30T14:47:49.951Z,5.63
2019-03-30T14:50:18.688Z,5.00
2019-03-30T14:52:47.287Z,6.50
2019-03-30T14:55:15.867Z,6.97
2019-03-30T14:57:44.457Z,5.37
2019-03-30T15:00:13.601Z,5.17
2019-03-30T15:02:42.228Z,5.20
2019-03-30T15:05:10.953Z,6.43
2019-03-30T15:07:39.556Z,6.53
2019-03-30T15:10:09.976Z,11.33
2019-03-30T15:12:39.103Z,5.03
2019-03-30T15:15:09.042Z,5.93
2019-03-30T15:17:40.657Z,5.87
2019-03-30T15:20:10.554Z,7.67
2019-03-30T15:22:39.340Z,7.83
2019-03-30T15:25:09.751Z,6.80
2019-03-30T15:27:38.343Z,6.07
2019-03-30T15:30:10.487Z,6.33
2019-03-30T15:32:39.392Z,6.43
2019-03-30T15:35:08.536Z,5.83
2019-03-30T15:37:37.088Z,6.67
2019-03-30T15:40:10.524Z,7.07
2019-03-30T15:42:40.314Z,6.73
2019-03-30T15:45:10.504Z,9.60
2019-03-30T15:47:39.089Z,7.30
2019-03-30T15:50:08.508Z,9.83
2019-03-30T15:52:37.167Z,14.97
2019-03-30T15:55:07.291Z,50.40
2019-03-30T15:57:36.537Z,100.50
2019-03-30T16:00:10.500Z,20.73
2019-03-30T16:02:39.199Z,10.57
2019-03-30T16:05:10.259Z,85.80
2019-03-30T16:07:39.009Z,62.57
2019-03-30T16:10:08.404Z,17.33
2019-03-30T16:12:37.443Z,6.13
2019-03-30T16:15:06.955Z,5.80
2019-03-30T16:17:35.531Z,7.73
2019-03-30T16:20:06.358Z,8.00
2019-03-30T16:22:34.917Z,7.03
2019-03-30T16:25:04.260Z,7.57
2019-03-30T16:27:32.967Z,5.77
2019-03-30T16:30:01.709Z,5.80
2019-03-30T16:32:30.297Z,6.10
2019-03-30T16:34:58.910Z,5.77
2019-03-30T16:37:27.470Z,6.50
2019-03-30T16:39:56.043Z,6.90
2019-03-30T16:42:24.617Z,5.90
2019-03-30T16:44:53.210Z,7.57
2019-03-30T16:47:22.173Z,7.83
2019-03-30T16:49:50.762Z,6.47
2019-03-30T16:52:19.412Z,6.70
2019-03-30T16:54:47.994Z,5.63
2019-03-30T16:57:16.619Z,6.37
2019-03-30T16:59:46.504Z,5.57
2019-03-30T17:02:15.107Z,6.47
2019-03-30T17:04:43.684Z,5.97
2019-03-30T17:07:12.333Z,6.00
2019-03-30T17:09:40.919Z,5.03
2019-03-30T17:12:09.503Z,5.90
2019-03-30T17:14:38.057Z,4.60
2019-03-30T17:17:07.012Z,4.77
2019-03-30T17:19:35.569Z,5.03
2019-03-30T17:22:04.244Z,4.53
2019-03-30T17:24:32.834Z,4.40
2019-03-30T17:27:01.408Z,5.17
2019-03-30T17:29:29.991Z,4.87
2019-03-30T17:31:58.565Z,6.20
2019-03-30T17:34:27.129Z,4.40
2019-03-30T17:36:56.083Z,8.07
2019-03-30T17:39:24.638Z,4.87
2019-03-30T17:41:53.250Z,4.73
2019-03-30T17:44:21.836Z,4.17
2019-03-30T17:46:50.484Z,5.20
2019-03-30T17:49:19.067Z,4.57
2019-03-30T17:51:47.649Z,4.80
2019-03-30T17:54:16.211Z,4.97
2019-03-30T17:56:45.086Z,5.67
2019-03-30T17:59:13.645Z,7.03
2019-03-30T18:01:42.250Z,10.30
2019-03-30T18:04:11.207Z,13.23
2019-03-30T18:06:39.777Z,15.00
2019-03-30T18:09:08.379Z,11.67
2019-03-30T18:11:37.016Z,8.17
2019-03-30T18:14:05.656Z,8.05
2019-03-30T18:16:34.280Z,6.73
2019-03-30T18:19:02.833Z,6.10
2019-03-30T18:21:31.803Z,6.63
2019-03-30T18:24:00.419Z,5.20
2019-03-30T18:26:29.016Z,4.73
2019-03-30T18:28:57.967Z,5.20
2019-03-30T18:31:27.111Z,5.97
2019-03-30T18:33:55.598Z,7.00
2019-03-30T18:36:25.442Z,12.73
2019-03-30T18:39:08.733Z,6.97
2019-03-30T18:41:27.421Z,6.73
2019-03-30T18:43:56.240Z,6.10
2019-03-30T18:46:25.107Z,5.87
2019-03-30T18:48:53.676Z,7.00
2019-03-30T18:51:23.300Z,6.17
2019-03-30T18:53:52.876Z,7.73
2019-03-30T18:56:21.544Z,6.30
2019-03-30T18:58:50.179Z,7.83
2019-03-30T19:01:18.739Z,10.20
2019-03-30T19:03:47.498Z,6.73
2019-03-30T19:06:16.100Z,8.27
2019-03-30T19:08:44.762Z,6.43
2019-03-30T19:11:13.705Z,7.23
2019-03-30T19:13:42.287Z,6.87
2019-03-30T19:16:10.868Z,7.57
2019-03-30T19:18:39.471Z,9.63
2019-03-30T19:21:08.036Z,7.90
2019-03-30T19:23:36.603Z,8.30
2019-03-30T19:26:05.374Z,10.65
2019-03-30T19:28:34.281Z,9.73
2019-03-30T19:31:02.879Z,8.70
2019-03-30T19:33:31.460Z,10.07
2019-03-30T19:36:00.441Z,13.00
2019-03-30T19:38:29.019Z,11.47
2019-03-30T19:40:57.593Z,18.43
2019-03-30T19:43:26.235Z,21.70
2019-03-30T19:45:54.776Z,18.00
2019-03-30T19:48:23.368Z,14.93
2019-03-30T19:50:51.960Z,12.17
2019-03-30T19:53:20.530Z,9.10
2019-03-30T19:55:49.148Z,11.63
2019-03-30T19:58:17.688Z,11.10
2019-03-30T20:00:46.441Z,8.47
2019-03-30T20:03:15.093Z,7.97
2019-03-30T20:05:44.675Z,7.83
2019-03-30T20:08:13.447Z,8.20
2019-03-30T20:10:42.118Z,7.03
2019-03-30T20:13:11.340Z,10.13
2019-03-30T20:15:39.909Z,8.30
2019-03-30T20:18:08.574Z,7.57
2019-03-30T20:20:37.216Z,8.40
2019-03-30T20:23:05.781Z,7.20
2019-03-30T20:25:34.704Z,12.68
2019-03-30T20:28:04.337Z,7.80
2019-03-30T20:30:33.108Z,7.77
2019-03-30T20:33:01.703Z,7.57
2019-03-30T20:35:30.339Z,7.40
2019-03-30T20:37:58.944Z,7.03
2019-03-30T20:40:27.528Z,8.57
2019-03-30T20:42:56.085Z,12.57
2019-03-30T20:45:24.683Z,8.10
2019-03-30T20:47:53.238Z,8.20
2019-03-30T20:50:22.449Z,9.27
2019-03-30T20:52:51.075Z,10.47
2019-03-30T20:55:19.664Z,10.57
2019-03-30T20:57:48.242Z,11.17
2019-03-30T21:00:17.521Z,10.07
2019-03-30T21:02:46.373Z,8.90
2019-03-30T21:05:15.484Z,11.50
2019-03-30T21:07:44.197Z,10.40
2019-03-30T21:10:12.963Z,9.73
2019-03-30T21:12:41.606Z,9.77
2019-03-30T21:15:10.811Z,11.70
2019-03-30T21:17:39.395Z,11.27
2019-03-30T21:20:09.180Z,10.23
2019-03-30T21:22:37.750Z,9.37
2019-03-30T21:25:06.879Z,8.03
2019-03-30T21:27:35.440Z,10.77
2019-03-30T21:30:06.960Z,8.67
2019-03-30T21:32:35.546Z,8.50
2019-03-30T21:35:06.723Z,10.57
2019-03-30T21:37:35.316Z,11.03
2019-03-30T21:40:05.320Z,11.90
2019-03-30T21:42:33.892Z,9.37
2019-03-30T21:45:02.540Z,9.33
2019-03-30T21:47:31.107Z,12.50
2019-03-30T21:49:59.759Z,10.33
2019-03-30T21:52:28.435Z,11.87
2019-03-30T21:54:58.073Z,12.00
2019-03-30T21:57:26.834Z,10.37
2019-03-30T22:00:09.218Z,15.07
2019-03-30T22:02:25.705Z,10.93
2019-03-30T22:04:54.681Z,11.43
2019-03-30T22:07:23.310Z,12.23
2019-03-30T22:09:52.248Z,11.73
2019-03-30T22:12:20.814Z,9.90
2019-03-30T22:14:49.399Z,12.13
2019-03-30T22:17:18.063Z,13.80
2019-03-30T22:19:46.645Z,14.07
2019-03-30T22:22:15.401Z,14.40
2019-03-30T22:24:44.561Z,12.30
2019-03-30T22:27:13.112Z,14.10
2019-03-30T22:29:41.710Z,11.50
2019-03-30T22:32:10.295Z,12.47
2019-03-30T22:34:38.944Z,13.93
2019-03-30T22:37:07.527Z,14.87
2019-03-30T22:39:36.102Z,15.13
2019-03-30T22:42:04.765Z,17.90
2019-03-30T22:44:33.384Z,16.77
2019-03-30T22:47:02.332Z,20.57
2019-03-30T22:49:30.927Z,20.90
2019-03-30T22:51:59.522Z,27.00
2019-03-30T22:54:28.083Z,23.20
2019-03-30T22:56:56.700Z,20.30
2019-03-30T22:59:25.265Z,23.67
2019-03-30T23:01:53.846Z,20.90
2019-03-30T23:04:22.832Z,24.40
2019-03-30T23:06:51.700Z,25.17
2019-03-30T23:09:20.299Z,21.47
2019-03-30T23:11:48.881Z,21.60
2019-03-30T23:14:17.461Z,25.43
2019-03-30T23:16:46.042Z,23.10
2019-03-30T23:19:14.689Z,23.73
2019-03-30T23:21:43.196Z,23.00
2019-03-30T23:24:11.793Z,22.20
2019-03-30T23:26:40.380Z,22.27
2019-03-30T23:29:09.000Z,21.07
2019-03-30T23:31:37.625Z,21.00
2019-03-30T23:34:06.256Z,20.33
2019-03-30T23:36:34.864Z,20.47
2019-03-30T23:39:05.468Z,24.93
2019-03-30T23:41:34.049Z,23.37
2019-03-30T23:44:02.901Z,19.83
2019-03-30T23:46:31.475Z,23.87
2019-03-30T23:49:00.234Z,21.03
2019-03-30T23:51:28.842Z,24.27
2019-03-30T23:53:57.422Z,23.50
2019-03-30T23:56:26.303Z,27.37
2019-03-30T23:58:55.027Z,21.77
